sensor_id;sensor_type;location;lat;lon;timestamp;temperature;humidity
9107;DHT22;4589;48.690;8.952;2023-09-19T00:02:04;14.90;99.90
9107;DHT22;4589;48.690;8.952;2023-09-19T00:04:34;15.00;99.90
9107;DHT22;4589;48.690;8.952;2023-09-19T00:09:28;14.90;99.90
9107;DHT22;4589;48.690;8.952;2023-09-19T00:14:19;14.90;99.90
9107;DHT22;4589;48.690;8.952;2023-09-19T00:16:45;14.90;99.90
9107;DHT22;4589;48.690;8.952;2023-09-19T00:21:38;14.90;99.90
9107;DHT22;4589;48.690;8.952;2023-09-19T00:24:07;14.90;99.90
9107;DHT22;4589;48.690;8.952;2023-09-19T00:26:34;14.90;99.90
9107;DHT22;4589;48.690;8.952;2023-09-19T00:29:00;14.90;99.90
9107;DHT22;4589;48.690;8.952;2023-09-19T00:31:34;14.90;99.90
9107;DHT22;4589;48.690;8.952;2023-09-19T00:33:59;14.90;99.90
9107;DHT22;4589;48.690;8.952;2023-09-19T00:36:32;14.80;99.90
9107;DHT22;4589;48.690;8.952;2023-09-19T00:38:59;14.80;99.90
9107;DHT22;4589;48.690;8.952;2023-09-19T00:41:24;14.90;99.90
9107;DHT22;4589;48.690;8.952;2023-09-19T00:43:50;14.80;99.90
9107;DHT22;4589;48.690;8.952;2023-09-19T00:46:19;14.80;99.90
9107;DHT22;4589;48.690;8.952;2023-09-19T00:48:45;14.80;99.90
9107;DHT22;4589;48.690;8.952;2023-09-19T00:51:11;14.80;99.90
9107;DHT22;4589;48.690;8.952;2023-09-19T00:53:39;14.80;99.90
9107;DHT22;4589;48.690;8.952;2023-09-19T00:58:34;14.80;99.90
9107;DHT22;4589;48.690;8.952;2023-09-19T01:01:01;14.80;99.90
9107;DHT22;4589;48.690;8.952;2023-09-19T01:03:27;14.80;99.90
9107;DHT22;4589;48.690;8.952;2023-09-19T01:05:53;14.80;99.90
9107;DHT22;4589;48.690;8.952;2023-09-19T01:08:18;14.80;99.90
9107;DHT22;4589;48.690;8.952;2023-09-19T01:11:01;14.70;99.90
9107;DHT22;4589;48.690;8.952;2023-09-19T01:13:34;14.70;99.90
9107;DHT22;4589;48.690;8.952;2023-09-19T01:16:33;14.70;99.90
9107;DHT22;4589;48.690;8.952;2023-09-19T01:27:43;14.70;99.90
9107;DHT22;4589;48.690;8.952;2023-09-19T01:30:17;14.70;99.90
9107;DHT22;4589;48.690;8.952;2023-09-19T01:32:43;14.70;99.90
9107;DHT22;4589;48.690;8.952;2023-09-19T01:37:38;14.70;99.90
9107;DHT22;4589;48.690;8.952;2023-09-19T01:40:07;14.70;99.90
9107;DHT22;4589;48.690;8.952;2023-09-19T01:43:08;14.70;99.90
9107;DHT22;4589;48.690;8.952;2023-09-19T01:45:57;14.70;99.90
9107;DHT22;4589;48.690;8.952;2023-09-19T01:51:05;14.70;99.90
9107;DHT22;4589;48.690;8.952;2023-09-19T01:56:08;14.70;99.90
9107;DHT22;4589;48.690;8.952;2023-09-19T01:58:42;14.70;99.90
9107;DHT22;4589;48.690;8.952;2023-09-19T02:01:12;14.60;99.90
9107;DHT22;4589;48.690;8.952;2023-09-19T02:03:41;14.50;99.90
9107;DHT22;4589;48.690;8.952;2023-09-19T02:06:16;14.50;99.90
9107;DHT22;4589;48.690;8.952;2023-09-19T02:08:44;14.40;99.90
9107;DHT22;4589;48.690;8.952;2023-09-19T02:13:39;14.30;99.90
9107;DHT22;4589;48.690;8.952;2023-09-19T02:16:06;14.30;99.90
9107;DHT22;4589;48.690;8.952;2023-09-19T02:18:32;14.30;99.90
9107;DHT22;4589;48.690;8.952;2023-09-19T02:21:00;14.20;99.90
9107;DHT22;4589;48.690;8.952;2023-09-19T02:23:26;14.20;99.90
9107;DHT22;4589;48.690;8.952;2023-09-19T02:25:55;14.10;99.90
9107;DHT22;4589;48.690;8.952;2023-09-19T02:28:23;14.10;99.90
9107;DHT22;4589;48.690;8.952;2023-09-19T02:30:49;14.00;99.90
9107;DHT22;4589;48.690;8.952;2023-09-19T02:33:16;13.90;99.90
9107;DHT22;4589;48.690;8.952;2023-09-19T02:35:42;13.90;99.90
9107;DHT22;4589;48.690;8.952;2023-09-19T02:38:08;13.80;99.90
9107;DHT22;4589;48.690;8.952;2023-09-19T02:40:36;13.80;99.90
9107;DHT22;4589;48.690;8.952;2023-09-19T02:47:56;13.90;99.90
9107;DHT22;4589;48.690;8.952;2023-09-19T02:50:22;14.00;99.90
9107;DHT22;4589;48.690;8.952;2023-09-19T02:52:48;14.00;99.90
9107;DHT22;4589;48.690;8.952;2023-09-19T02:55:17;14.00;99.90
9107;DHT22;4589;48.690;8.952;2023-09-19T02:57:52;14.10;99.90
9107;DHT22;4589;48.690;8.952;2023-09-19T03:00:20;14.10;99.90
9107;DHT22;4589;48.690;8.952;2023-09-19T03:02:47;14.20;99.90
9107;DHT22;4589;48.690;8.952;2023-09-19T03:05:12;14.20;99.90
9107;DHT22;4589;48.690;8.952;2023-09-19T03:07:38;14.30;99.90
9107;DHT22;4589;48.690;8.952;2023-09-19T03:10:06;11.30;99.90
9107;DHT22;4589;48.690;8.952;2023-09-19T03:12:33;14.40;99.90
9107;DHT22;4589;48.690;8.952;2023-09-19T03:17:25;14.40;99.90
9107;DHT22;4589;48.690;8.952;2023-09-19T03:19:50;14.40;99.90
9107;DHT22;4589;48.690;8.952;2023-09-19T03:22:16;14.40;99.90
9107;DHT22;4589;48.690;8.952;2023-09-19T03:24:42;14.50;99.90
9107;DHT22;4589;48.690;8.952;2023-09-19T03:27:11;14.50;99.90
9107;DHT22;4589;48.690;8.952;2023-09-19T03:29:39;14.50;99.90
9107;DHT22;4589;48.690;8.952;2023-09-19T03:32:05;14.60;99.90
9107;DHT22;4589;48.690;8.952;2023-09-19T03:34:31;14.60;99.90
9107;DHT22;4589;48.690;8.952;2023-09-19T03:39:22;14.60;99.90
9107;DHT22;4589;48.690;8.952;2023-09-19T03:44:15;14.60;99.90
9107;DHT22;4589;48.690;8.952;2023-09-19T03:46:40;14.60;99.90
9107;DHT22;4589;48.690;8.952;2023-09-19T03:49:06;14.60;99.90
9107;DHT22;4589;48.690;8.952;2023-09-19T03:51:32;14.50;99.90
9107;DHT22;4589;48.690;8.952;2023-09-19T03:53:59;14.60;99.90
9107;DHT22;4589;48.690;8.952;2023-09-19T03:56:25;14.50;99.90
9107;DHT22;4589;48.690;8.952;2023-09-19T03:58:50;14.50;99.90
9107;DHT22;4589;48.690;8.952;2023-09-19T04:01:16;14.60;99.90
9107;DHT22;4589;48.690;8.952;2023-09-19T04:03:43;14.50;99.90
9107;DHT22;4589;48.690;8.952;2023-09-19T04:06:13;14.60;99.90
9107;DHT22;4589;48.690;8.952;2023-09-19T04:08:39;14.60;99.90
9107;DHT22;4589;48.690;8.952;2023-09-19T04:11:05;14.60;99.90
9107;DHT22;4589;48.690;8.952;2023-09-19T04:23:17;14.70;99.90
9107;DHT22;4589;48.690;8.952;2023-09-19T04:25:45;14.70;99.90
9107;DHT22;4589;48.690;8.952;2023-09-19T04:33:06;14.70;99.90
9107;DHT22;4589;48.690;8.952;2023-09-19T04:35:32;14.70;99.90
9107;DHT22;4589;48.690;8.952;2023-09-19T04:37:58;14.70;99.90
9107;DHT22;4589;48.690;8.952;2023-09-19T04:40:24;14.80;99.90
9107;DHT22;4589;48.690;8.952;2023-09-19T04:42:55;14.70;99.90
9107;DHT22;4589;48.690;8.952;2023-09-19T04:45:25;14.80;99.90
9107;DHT22;4589;48.690;8.952;2023-09-19T04:47:55;14.80;99.90
9107;DHT22;4589;48.690;8.952;2023-09-19T04:50:21;14.70;99.90
9107;DHT22;4589;48.690;8.952;2023-09-19T04:52:51;14.70;99.90
9107;DHT22;4589;48.690;8.952;2023-09-19T04:55:18;14.70;99.90
9107;DHT22;4589;48.690;8.952;2023-09-19T04:57:48;14.70;99.90
9107;DHT22;4589;48.690;8.952;2023-09-19T05:00:19;14.70;99.90
9107;DHT22;4589;48.690;8.952;2023-09-19T05:02:52;14.60;99.90
9107;DHT22;4589;48.690;8.952;2023-09-19T05:05:18;14.60;99.90
9107;DHT22;4589;48.690;8.952;2023-09-19T05:07:44;14.60;99.90
9107;DHT22;4589;48.690;8.952;2023-09-19T05:10:10;14.50;99.90
9107;DHT22;4589;48.690;8.952;2023-09-19T05:15:04;14.50;99.90
9107;DHT22;4589;48.690;8.952;2023-09-19T05:17:30;14.50;99.90
9107;DHT22;4589;48.690;8.952;2023-09-19T05:19:57;14.50;99.90
9107;DHT22;4589;48.690;8.952;2023-09-19T05:22:26;14.50;99.90
9107;DHT22;4589;48.690;8.952;2023-09-19T05:24:52;14.40;99.90
9107;DHT22;4589;48.690;8.952;2023-09-19T05:27:18;14.50;99.90
9107;DHT22;4589;48.690;8.952;2023-09-19T05:29:46;14.50;99.90
9107;DHT22;4589;48.690;8.952;2023-09-19T05:32:11;14.50;99.90
9107;DHT22;4589;48.690;8.952;2023-09-19T05:34:38;14.50;99.90
9107;DHT22;4589;48.690;8.952;2023-09-19T05:41:58;14.60;99.90
9107;DHT22;4589;48.690;8.952;2023-09-19T05:44:25;14.70;99.90
9107;DHT22;4589;48.690;8.952;2023-09-19T05:46:51;14.70;99.90
9107;DHT22;4589;48.690;8.952;2023-09-19T05:51:43;14.70;99.90
9107;DHT22;4589;48.690;8.952;2023-09-19T05:56:36;14.80;99.90
9107;DHT22;4589;48.690;8.952;2023-09-19T06:01:30;14.70;99.90
9107;DHT22;4589;48.690;8.952;2023-09-19T06:08:51;14.50;99.90
9107;DHT22;4589;48.690;8.952;2023-09-19T06:11:17;14.50;99.90
9107;DHT22;4589;48.690;8.952;2023-09-19T06:13:45;14.40;99.90
9107;DHT22;4589;48.690;8.952;2023-09-19T06:16:12;14.40;99.90
9107;DHT22;4589;48.690;8.952;2023-09-19T06:18:38;14.30;99.90
9107;DHT22;4589;48.690;8.952;2023-09-19T06:21:04;14.30;99.90
9107;DHT22;4589;48.690;8.952;2023-09-19T06:23:33;14.40;99.90
9107;DHT22;4589;48.690;8.952;2023-09-19T06:28:25;14.50;99.90
9107;DHT22;4589;48.690;8.952;2023-09-19T06:30:53;14.60;99.90
9107;DHT22;4589;48.690;8.952;2023-09-19T06:33:19;14.70;99.90
9107;DHT22;4589;48.690;8.952;2023-09-19T06:35:46;14.80;99.90
9107;DHT22;4589;48.690;8.952;2023-09-19T06:38:13;14.80;99.90
9107;DHT22;4589;48.690;8.952;2023-09-19T06:43:12;15.10;99.90
9107;DHT22;4589;48.690;8.952;2023-09-19T06:45:37;15.20;99.90
9107;DHT22;4589;48.690;8.952;2023-09-19T06:50:30;15.40;99.90
9107;DHT22;4589;48.690;8.952;2023-09-19T06:52:58;15.50;99.90
9107;DHT22;4589;48.690;8.952;2023-09-19T06:55:25;15.70;99.90
9107;DHT22;4589;48.690;8.952;2023-09-19T06:57:53;15.70;99.90
9107;DHT22;4589;48.690;8.952;2023-09-19T07:00:22;15.80;99.90
9107;DHT22;4589;48.690;8.952;2023-09-19T07:07:47;16.10;99.90
9107;DHT22;4589;48.690;8.952;2023-09-19T07:10:12;16.20;99.90
9107;DHT22;4589;48.690;8.952;2023-09-19T07:15:06;16.60;99.90
9107;DHT22;4589;48.690;8.952;2023-09-19T07:17:32;16.80;99.90
9107;DHT22;4589;48.690;8.952;2023-09-19T07:19:58;17.00;99.90
9107;DHT22;4589;48.690;8.952;2023-09-19T07:24:50;17.30;99.90
9107;DHT22;4589;48.690;8.952;2023-09-19T07:29:41;17.90;99.90
9107;DHT22;4589;48.690;8.952;2023-09-19T07:32:07;18.30;99.90
9107;DHT22;4589;48.690;8.952;2023-09-19T07:34:33;18.50;99.90
9107;DHT22;4589;48.690;8.952;2023-09-19T07:36:59;18.70;99.90
9107;DHT22;4589;48.690;8.952;2023-09-19T07:39:24;18.80;99.90
9107;DHT22;4589;48.690;8.952;2023-09-19T07:41:50;19.10;99.90
9107;DHT22;4589;48.690;8.952;2023-09-19T07:51:35;19.70;99.90
9107;DHT22;4589;48.690;8.952;2023-09-19T07:54:01;20.20;99.90
9107;DHT22;4589;48.690;8.952;2023-09-19T07:56:26;20.90;99.90
9107;DHT22;4589;48.690;8.952;2023-09-19T07:58:53;21.60;99.90
9107;DHT22;4589;48.690;8.952;2023-09-19T08:01:18;22.30;99.90
9107;DHT22;4589;48.690;8.952;2023-09-19T08:03:44;22.50;99.90
9107;DHT22;4589;48.690;8.952;2023-09-19T08:06:10;22.20;99.90
9107;DHT22;4589;48.690;8.952;2023-09-19T08:08:37;22.10;99.90
9107;DHT22;4589;48.690;8.952;2023-09-19T08:11:03;22.60;99.90
9107;DHT22;4589;48.690;8.952;2023-09-19T08:13:37;22.20;99.90
9107;DHT22;4589;48.690;8.952;2023-09-19T08:16:06;22.90;99.90
9107;DHT22;4589;48.690;8.952;2023-09-19T08:18:32;23.30;99.90
9107;DHT22;4589;48.690;8.952;2023-09-19T08:20:58;24.00;99.90
9107;DHT22;4589;48.690;8.952;2023-09-19T08:23:25;24.30;99.90
9107;DHT22;4589;48.690;8.952;2023-09-19T08:25:56;24.10;99.90
9107;DHT22;4589;48.690;8.952;2023-09-19T08:28:22;23.30;99.90
9107;DHT22;4589;48.690;8.952;2023-09-19T08:30:50;22.90;99.90
9107;DHT22;4589;48.690;8.952;2023-09-19T08:33:17;22.90;99.90
9107;DHT22;4589;48.690;8.952;2023-09-19T08:38:10;22.80;99.90
9107;DHT22;4589;48.690;8.952;2023-09-19T08:40:37;23.10;99.90
9107;DHT22;4589;48.690;8.952;2023-09-19T08:43:05;22.80;99.90
9107;DHT22;4589;48.690;8.952;2023-09-19T08:45:32;23.50;99.90
9107;DHT22;4589;48.690;8.952;2023-09-19T08:50:47;24.50;99.90
9107;DHT22;4589;48.690;8.952;2023-09-19T08:53:19;24.10;99.90
9107;DHT22;4589;48.690;8.952;2023-09-19T08:55:51;23.70;99.90
9107;DHT22;4589;48.690;8.952;2023-09-19T08:58:17;23.50;99.90
9107;DHT22;4589;48.690;8.952;2023-09-19T09:00:48;23.60;99.90
9107;DHT22;4589;48.690;8.952;2023-09-19T09:03:15;24.00;99.90
9107;DHT22;4589;48.690;8.952;2023-09-19T09:05:43;23.80;99.90
9107;DHT22;4589;48.690;8.952;2023-09-19T09:08:10;24.30;99.90
9107;DHT22;4589;48.690;8.952;2023-09-19T09:10:37;24.30;99.90
9107;DHT22;4589;48.690;8.952;2023-09-19T09:13:03;24.90;99.90
9107;DHT22;4589;48.690;8.952;2023-09-19T09:15:35;25.10;99.90
9107;DHT22;4589;48.690;8.952;2023-09-19T09:18:02;25.10;99.90
9107;DHT22;4589;48.690;8.952;2023-09-19T09:20:28;25.50;99.90
9107;DHT22;4589;48.690;8.952;2023-09-19T09:22:55;25.90;99.90
9107;DHT22;4589;48.690;8.952;2023-09-19T09:25:22;26.30;99.90
9107;DHT22;4589;48.690;8.952;2023-09-19T09:28:01;26.30;99.90
9107;DHT22;4589;48.690;8.952;2023-09-19T09:30:36;26.00;99.90
9107;DHT22;4589;48.690;8.952;2023-09-19T09:33:13;25.80;99.90
9107;DHT22;4589;48.690;8.952;2023-09-19T09:35:59;25.50;99.90
9107;DHT22;4589;48.690;8.952;2023-09-19T09:38:48;25.50;99.90
9107;DHT22;4589;48.690;8.952;2023-09-19T09:41:36;26.00;99.90
9107;DHT22;4589;48.690;8.952;2023-09-19T09:44:13;25.60;99.90
9107;DHT22;4589;48.690;8.952;2023-09-19T09:46:43;25.10;99.90
9107;DHT22;4589;48.690;8.952;2023-09-19T09:49:24;24.40;99.90
9107;DHT22;4589;48.690;8.952;2023-09-19T09:52:06;24.50;99.90
9107;DHT22;4589;48.690;8.952;2023-09-19T09:55:01;25.40;99.90
9107;DHT22;4589;48.690;8.952;2023-09-19T09:57:30;25.60;99.90
9107;DHT22;4589;48.690;8.952;2023-09-19T09:59:58;26.10;99.40
9107;DHT22;4589;48.690;8.952;2023-09-19T10:02:29;26.00;99.90
9107;DHT22;4589;48.690;8.952;2023-09-19T10:04:58;26.50;99.70
9107;DHT22;4589;48.690;8.952;2023-09-19T10:07:35;27.00;99.90
9107;DHT22;4589;48.690;8.952;2023-09-19T10:10:06;27.40;99.90
9107;DHT22;4589;48.690;8.952;2023-09-19T10:12:46;27.60;97.70
9107;DHT22;4589;48.690;8.952;2023-09-19T10:15:17;26.70;97.10
9107;DHT22;4589;48.690;8.952;2023-09-19T10:17:45;25.90;96.60
9107;DHT22;4589;48.690;8.952;2023-09-19T10:20:18;26.30;99.90
9107;DHT22;4589;48.690;8.952;2023-09-19T10:23:06;26.70;95.70
9107;DHT22;4589;48.690;8.952;2023-09-19T10:25:39;27.30;98.60
9107;DHT22;4589;48.690;8.952;2023-09-19T10:28:09;27.00;97.50
9107;DHT22;4589;48.690;8.952;2023-09-19T10:30:46;27.00;96.00
9107;DHT22;4589;48.690;8.952;2023-09-19T10:33:14;27.30;94.30
9107;DHT22;4589;48.690;8.952;2023-09-19T10:35:43;26.30;97.20
9107;DHT22;4589;48.690;8.952;2023-09-19T10:38:14;25.60;97.20
9107;DHT22;4589;48.690;8.952;2023-09-19T10:40:40;25.20;95.90
9107;DHT22;4589;48.690;8.952;2023-09-19T10:43:21;25.70;99.90
9107;DHT22;4589;48.690;8.952;2023-09-19T10:45:48;26.40;95.50
9107;DHT22;4589;48.690;8.952;2023-09-19T10:48:20;26.90;98.10
9107;DHT22;4589;48.690;8.952;2023-09-19T10:56:08;26.10;98.10
9107;DHT22;4589;48.690;8.952;2023-09-19T11:01:10;26.30;95.90
9107;DHT22;4589;48.690;8.952;2023-09-19T11:03:40;26.10;92.90
9107;DHT22;4589;48.690;8.952;2023-09-19T11:06:14;26.30;97.40
9107;DHT22;4589;48.690;8.952;2023-09-19T11:08:56;26.90;97.70
9107;DHT22;4589;48.690;8.952;2023-09-19T11:30:31;26.70;97.30
9107;DHT22;4589;48.690;8.952;2023-09-19T11:49:30;27.60;92.40
9107;DHT22;4589;48.690;8.952;2023-09-19T11:54:23;28.20;95.00
9107;DHT22;4589;48.690;8.952;2023-09-19T11:56:53;28.50;94.00
9107;DHT22;4589;48.690;8.952;2023-09-19T11:59:32;28.10;93.50
9107;DHT22;4589;48.690;8.952;2023-09-19T12:02:01;27.90;89.80
9107;DHT22;4589;48.690;8.952;2023-09-19T12:04:40;27.70;92.00
9107;DHT22;4589;48.690;8.952;2023-09-19T12:07:09;27.60;92.70
9107;DHT22;4589;48.690;8.952;2023-09-19T12:10:03;28.10;97.30
9107;DHT22;4589;48.690;8.952;2023-09-19T12:12:30;28.70;92.80
9107;DHT22;4589;48.690;8.952;2023-09-19T12:14:56;29.10;91.80
9107;DHT22;4589;48.690;8.952;2023-09-19T12:17:46;29.50;92.30
9107;DHT22;4589;48.690;8.952;2023-09-19T12:20:10;29.60;91.40
9107;DHT22;4589;48.690;8.952;2023-09-19T12:22:41;29.50;87.60
9107;DHT22;4589;48.690;8.952;2023-09-19T12:25:08;29.70;87.70
9107;DHT22;4589;48.690;8.952;2023-09-19T12:27:48;30.20;92.60
9107;DHT22;4589;48.690;8.952;2023-09-19T12:30:15;30.20;86.80
9107;DHT22;4589;48.690;8.952;2023-09-19T12:32:43;29.30;86.80
9107;DHT22;4589;48.690;8.952;2023-09-19T12:35:10;28.80;87.90
9107;DHT22;4589;48.690;8.952;2023-09-19T12:37:44;28.50;90.30
9107;DHT22;4589;48.690;8.952;2023-09-19T12:40:13;28.20;91.20
9107;DHT22;4589;48.690;8.952;2023-09-19T12:42:44;27.80;88.40
9107;DHT22;4589;48.690;8.952;2023-09-19T12:45:11;26.90;90.40
9107;DHT22;4589;48.690;8.952;2023-09-19T12:52:51;25.20;92.20
9107;DHT22;4589;48.690;8.952;2023-09-19T12:55:25;25.30;92.00
9107;DHT22;4589;48.690;8.952;2023-09-19T13:00:37;24.90;92.00
9107;DHT22;4589;48.690;8.952;2023-09-19T13:03:26;25.10;94.60
9107;DHT22;4589;48.690;8.952;2023-09-19T13:06:00;24.70;94.20
9107;DHT22;4589;48.690;8.952;2023-09-19T13:08:39;24.70;94.00
9107;DHT22;4589;48.690;8.952;2023-09-19T13:11:15;25.00;94.00
9107;DHT22;4589;48.690;8.952;2023-09-19T13:13:49;25.00;93.90
9107;DHT22;4589;48.690;8.952;2023-09-19T13:16:19;25.10;95.10
9107;DHT22;4589;48.690;8.952;2023-09-19T13:18:48;24.80;94.70
9107;DHT22;4589;48.690;8.952;2023-09-19T13:21:17;24.50;93.00
9107;DHT22;4589;48.690;8.952;2023-09-19T13:23:53;24.30;94.30
9107;DHT22;4589;48.690;8.952;2023-09-19T13:26:21;24.20;96.30
9107;DHT22;4589;48.690;8.952;2023-09-19T13:28:48;24.00;94.20
9107;DHT22;4589;48.690;8.952;2023-09-19T13:33:48;23.90;94.70
9107;DHT22;4589;48.690;8.952;2023-09-19T13:36:14;23.80;95.10
9107;DHT22;4589;48.690;8.952;2023-09-19T13:38:41;23.20;95.10
9107;DHT22;4589;48.690;8.952;2023-09-19T13:41:10;23.40;96.20
9107;DHT22;4589;48.690;8.952;2023-09-19T13:43:37;23.50;94.80
9107;DHT22;4589;48.690;8.952;2023-09-19T13:46:04;23.60;95.40
9107;DHT22;4589;48.690;8.952;2023-09-19T13:50:56;23.30;93.90
9107;DHT22;4589;48.690;8.952;2023-09-19T14:05:32;22.70;93.90
9107;DHT22;4589;48.690;8.952;2023-09-19T14:07:58;22.40;95.10
9107;DHT22;4589;48.690;8.952;2023-09-19T14:20:21;21.70;94.30
9107;DHT22;4589;48.690;8.952;2023-09-19T14:22:48;21.40;93.20
9107;DHT22;4589;48.690;8.952;2023-09-19T14:30:07;21.30;94.60
9107;DHT22;4589;48.690;8.952;2023-09-19T14:32:33;21.20;96.70
9107;DHT22;4589;48.690;8.952;2023-09-19T14:34:59;21.30;95.80
9107;DHT22;4589;48.690;8.952;2023-09-19T14:37:24;21.20;97.80
9107;DHT22;4589;48.690;8.952;2023-09-19T14:47:09;21.20;95.30
9107;DHT22;4589;48.690;8.952;2023-09-19T14:49:35;21.10;96.20
9107;DHT22;4589;48.690;8.952;2023-09-19T14:52:03;21.00;95.40
9107;DHT22;4589;48.690;8.952;2023-09-19T14:54:30;21.10;96.40
9107;DHT22;4589;48.690;8.952;2023-09-19T14:56:56;20.90;96.00
9107;DHT22;4589;48.690;8.952;2023-09-19T14:59:33;20.90;95.30
9107;DHT22;4589;48.690;8.952;2023-09-19T15:02:04;20.80;95.90
9107;DHT22;4589;48.690;8.952;2023-09-19T15:04:30;20.80;97.00
9107;DHT22;4589;48.690;8.952;2023-09-19T15:06:56;20.70;96.90
9107;DHT22;4589;48.690;8.952;2023-09-19T15:09:23;20.70;96.10
9107;DHT22;4589;48.690;8.952;2023-09-19T15:21:36;20.90;97.30
9107;DHT22;4589;48.690;8.952;2023-09-19T15:24:05;20.90;98.00
9107;DHT22;4589;48.690;8.952;2023-09-19T15:26:35;20.70;98.90
9107;DHT22;4589;48.690;8.952;2023-09-19T15:38:59;20.70;96.50
9107;DHT22;4589;48.690;8.952;2023-09-19T15:41:35;20.60;97.10
9107;DHT22;4589;48.690;8.952;2023-09-19T15:46:29;20.60;96.50
9107;DHT22;4589;48.690;8.952;2023-09-19T15:48:56;20.50;97.80
9107;DHT22;4589;48.690;8.952;2023-09-19T15:51:22;20.40;98.50
9107;DHT22;4589;48.690;8.952;2023-09-19T15:53:49;20.40;97.30
9107;DHT22;4589;48.690;8.952;2023-09-19T15:56:16;20.30;97.20
9107;DHT22;4589;48.690;8.952;2023-09-19T15:58:48;20.20;98.20
9107;DHT22;4589;48.690;8.952;2023-09-19T16:01:14;20.20;96.80
9107;DHT22;4589;48.690;8.952;2023-09-19T16:03:43;20.00;97.10
9107;DHT22;4589;48.690;8.952;2023-09-19T16:06:11;19.80;98.00
9107;DHT22;4589;48.690;8.952;2023-09-19T16:08:41;19.70;98.30
9107;DHT22;4589;48.690;8.952;2023-09-19T16:11:07;19.60;98.20
9107;DHT22;4589;48.690;8.952;2023-09-19T16:25:42;19.40;98.30
9107;DHT22;4589;48.690;8.952;2023-09-19T16:28:08;19.40;99.70
9107;DHT22;4589;48.690;8.952;2023-09-19T16:30:33;19.30;99.10
9107;DHT22;4589;48.690;8.952;2023-09-19T16:32:59;19.30;99.90
9107;DHT22;4589;48.690;8.952;2023-09-19T16:35:25;19.20;99.40
9107;DHT22;4589;48.690;8.952;2023-09-19T16:45:09;19.00;99.90
9107;DHT22;4589;48.690;8.952;2023-09-19T16:47:38;18.90;99.90
9107;DHT22;4589;48.690;8.952;2023-09-19T16:50:04;18.80;99.90
9107;DHT22;4589;48.690;8.952;2023-09-19T16:54:57;18.60;99.90
9107;DHT22;4589;48.690;8.952;2023-09-19T16:57:22;18.60;99.90
9107;DHT22;4589;48.690;8.952;2023-09-19T17:02:15;18.50;99.90
9107;DHT22;4589;48.690;8.952;2023-09-19T17:04:42;18.40;99.90
9107;DHT22;4589;48.690;8.952;2023-09-19T17:07:08;18.40;99.90
9107;DHT22;4589;48.690;8.952;2023-09-19T17:09:35;18.30;99.90
9107;DHT22;4589;48.690;8.952;2023-09-19T17:14:28;18.00;99.90
9107;DHT22;4589;48.690;8.952;2023-09-19T17:26:40;17.40;99.90
9107;DHT22;4589;48.690;8.952;2023-09-19T17:29:08;17.30;99.90
9107;DHT22;4589;48.690;8.952;2023-09-19T17:39:00;16.80;99.90
9107;DHT22;4589;48.690;8.952;2023-09-19T17:43:57;16.60;99.90
9107;DHT22;4589;48.690;8.952;2023-09-19T17:46:24;16.60;99.90
9107;DHT22;4589;48.690;8.952;2023-09-19T17:48:56;16.50;99.90
9107;DHT22;4589;48.690;8.952;2023-09-19T17:51:22;16.40;99.90
9107;DHT22;4589;48.690;8.952;2023-09-19T17:53:48;16.30;99.90
9107;DHT22;4589;48.690;8.952;2023-09-19T17:56:15;16.30;99.90
9107;DHT22;4589;48.690;8.952;2023-09-19T17:58:47;16.20;99.90
9107;DHT22;4589;48.690;8.952;2023-09-19T18:01:25;16.10;99.90
9107;DHT22;4589;48.690;8.952;2023-09-19T18:03:52;16.10;99.90
9107;DHT22;4589;48.690;8.952;2023-09-19T18:06:23;16.00;99.90
9107;DHT22;4589;48.690;8.952;2023-09-19T18:11:16;15.90;99.90
9107;DHT22;4589;48.690;8.952;2023-09-19T18:13:43;15.80;99.90
9107;DHT22;4589;48.690;8.952;2023-09-19T18:16:09;15.80;99.90
9107;DHT22;4589;48.690;8.952;2023-09-19T18:18:35;15.70;99.90
9107;DHT22;4589;48.690;8.952;2023-09-19T18:21:02;15.70;99.90
9107;DHT22;4589;48.690;8.952;2023-09-19T18:25:58;15.50;99.90
9107;DHT22;4589;48.690;8.952;2023-09-19T18:28:23;15.60;99.90
9107;DHT22;4589;48.690;8.952;2023-09-19T18:30:49;15.50;99.90
9107;DHT22;4589;48.690;8.952;2023-09-19T18:33:15;15.40;99.90
9107;DHT22;4589;48.690;8.952;2023-09-19T18:35:41;15.30;99.90
9107;DHT22;4589;48.690;8.952;2023-09-19T18:38:07;15.30;99.90
9107;DHT22;4589;48.690;8.952;2023-09-19T18:40:34;15.30;99.90
9107;DHT22;4589;48.690;8.952;2023-09-19T18:43:01;15.30;99.90
9107;DHT22;4589;48.690;8.952;2023-09-19T18:45:26;15.30;99.90
9107;DHT22;4589;48.690;8.952;2023-09-19T18:50:18;15.00;99.90
9107;DHT22;4589;48.690;8.952;2023-09-19T18:55:12;14.90;99.90
9107;DHT22;4589;48.690;8.952;2023-09-19T19:00:06;14.80;99.90
9107;DHT22;4589;48.690;8.952;2023-09-19T19:02:32;14.60;99.90
9107;DHT22;4589;48.690;8.952;2023-09-19T19:04:58;14.50;99.90
9107;DHT22;4589;48.690;8.952;2023-09-19T19:07:24;14.40;99.90
9107;DHT22;4589;48.690;8.952;2023-09-19T19:09:51;14.30;99.90
9107;DHT22;4589;48.690;8.952;2023-09-19T19:14:42;14.20;99.90
9107;DHT22;4589;48.690;8.952;2023-09-19T19:17:11;14.20;99.90
9107;DHT22;4589;48.690;8.952;2023-09-19T19:19:42;14.20;99.90
9107;DHT22;4589;48.690;8.952;2023-09-19T19:24:34;14.10;99.90
9107;DHT22;4589;48.690;8.952;2023-09-19T19:27:00;13.90;99.90
9107;DHT22;4589;48.690;8.952;2023-09-19T19:29:25;13.90;99.90
9107;DHT22;4589;48.690;8.952;2023-09-19T19:34:19;13.80;99.90
9107;DHT22;4589;48.690;8.952;2023-09-19T19:39:11;13.60;99.90
9107;DHT22;4589;48.690;8.952;2023-09-19T19:41:41;13.50;99.90
9107;DHT22;4589;48.690;8.952;2023-09-19T19:49:00;13.30;99.90
9107;DHT22;4589;48.690;8.952;2023-09-19T19:51:26;13.40;99.90
9107;DHT22;4589;48.690;8.952;2023-09-19T19:56:20;13.20;99.90
9107;DHT22;4589;48.690;8.952;2023-09-19T20:01:13;13.10;99.90
9107;DHT22;4589;48.690;8.952;2023-09-19T20:03:39;13.10;99.90
9107;DHT22;4589;48.690;8.952;2023-09-19T20:06:05;13.00;99.90
9107;DHT22;4589;48.690;8.952;2023-09-19T20:08:31;12.90;99.90
9107;DHT22;4589;48.690;8.952;2023-09-19T20:11:04;12.80;99.90
9107;DHT22;4589;48.690;8.952;2023-09-19T20:13:30;12.70;99.90
9107;DHT22;4589;48.690;8.952;2023-09-19T20:15:57;12.70;99.90
9107;DHT22;4589;48.690;8.952;2023-09-19T20:18:24;12.70;99.90
9107;DHT22;4589;48.690;8.952;2023-09-19T20:20:49;12.70;99.90
9107;DHT22;4589;48.690;8.952;2023-09-19T20:25:46;12.70;99.90
9107;DHT22;4589;48.690;8.952;2023-09-19T20:30:39;12.80;99.90
9107;DHT22;4589;48.690;8.952;2023-09-19T20:33:09;12.80;99.90
9107;DHT22;4589;48.690;8.952;2023-09-19T20:35:37;12.80;99.90
9107;DHT22;4589;48.690;8.952;2023-09-19T20:38:04;12.80;99.90
9107;DHT22;4589;48.690;8.952;2023-09-19T20:45:24;12.60;99.90
9107;DHT22;4589;48.690;8.952;2023-09-19T20:47:50;12.60;99.90
9107;DHT22;4589;48.690;8.952;2023-09-19T20:50:21;12.60;99.90
9107;DHT22;4589;48.690;8.952;2023-09-19T21:00:09;12.50;99.90
9107;DHT22;4589;48.690;8.952;2023-09-19T21:05:06;12.50;99.90
9107;DHT22;4589;48.690;8.952;2023-09-19T21:07:31;12.50;99.90
9107;DHT22;4589;48.690;8.952;2023-09-19T21:10:00;12.50;99.90
9107;DHT22;4589;48.690;8.952;2023-09-19T21:12:27;12.60;99.90
9107;DHT22;4589;48.690;8.952;2023-09-19T21:14:52;12.60;99.90
9107;DHT22;4589;48.690;8.952;2023-09-19T21:17:22;12.50;99.90
9107;DHT22;4589;48.690;8.952;2023-09-19T21:29:33;12.10;99.90
9107;DHT22;4589;48.690;8.952;2023-09-19T21:31:59;12.10;99.90
9107;DHT22;4589;48.690;8.952;2023-09-19T21:39:20;12.10;99.90
9107;DHT22;4589;48.690;8.952;2023-09-19T21:41:45;12.10;99.90
9107;DHT22;4589;48.690;8.952;2023-09-19T21:44:11;12.10;99.90
9107;DHT22;4589;48.690;8.952;2023-09-19T21:49:04;12.10;99.90